sensor_id;sensor_type;location;lat;lon;timestamp;pressure;altitude;pressure_sealevel;temperature;humidity
15314;BME280;7757;52.626;4.746;2023-08-30T00:00:37;100634.34;;;21.32;59.15
15314;BME280;7757;52.626;4.746;2023-08-30T00:03:02;100628.91;;;21.32;59.07
15314;BME280;7757;52.626;4.746;2023-08-30T00:05:28;100635.47;;;21.36;59.04
15314;BME280;7757;52.626;4.746;2023-08-30T00:07:54;100632.97;;;21.29;59.15
15314;BME280;7757;52.626;4.746;2023-08-30T00:10:20;100592.63;;;21.16;59.48
15314;BME280;7757;52.626;4.746;2023-08-30T00:12:46;100610.28;;;21.13;59.56
15314;BME280;7757;52.626;4.746;2023-08-30T00:15:11;100593.91;;;21.08;59.68
15314;BME280;7757;52.626;4.746;2023-08-30T00:17:36;100616.00;;;21.17;60.09
15314;BME280;7757;52.626;4.746;2023-08-30T00:20:02;100604.34;;;21.22;59.29
15314;BME280;7757;52.626;4.746;2023-08-30T00:22:28;100600.81;;;21.21;58.99
15314;BME280;7757;52.626;4.746;2023-08-30T00:24:53;100606.56;;;21.25;58.98
15314;BME280;7757;52.626;4.746;2023-08-30T00:27:19;100593.44;;;21.17;58.94
15314;BME280;7757;52.626;4.746;2023-08-30T00:29:47;100575.88;;;21.02;59.28
15314;BME280;7757;52.626;4.746;2023-08-30T00:32:12;100592.47;;;21.01;59.33
15314;BME280;7757;52.626;4.746;2023-08-30T00:34:38;100599.66;;;21.12;59.31
15314;BME280;7757;52.626;4.746;2023-08-30T00:37:05;100591.25;;;21.13;59.78
15314;BME280;7757;52.626;4.746;2023-08-30T00:39:31;100592.06;;;21.14;58.73
15314;BME280;7757;52.626;4.746;2023-08-30T00:41:57;100571.75;;;20.90;59.66
15314;BME280;7757;52.626;4.746;2023-08-30T00:44:22;100586.38;;;21.16;59.58
15314;BME280;7757;52.626;4.746;2023-08-30T00:46:48;100580.94;;;21.16;59.48
15314;BME280;7757;52.626;4.746;2023-08-30T00:49:13;100582.00;;;21.14;59.03
15314;BME280;7757;52.626;4.746;2023-08-30T00:51:39;100569.19;;;21.10;59.98
15314;BME280;7757;52.626;4.746;2023-08-30T00:54:07;100569.19;;;21.10;59.42
15314;BME280;7757;52.626;4.746;2023-08-30T00:56:32;100552.75;;;21.00;59.63
15314;BME280;7757;52.626;4.746;2023-08-30T00:58:59;100567.03;;;21.12;59.84
15314;BME280;7757;52.626;4.746;2023-08-30T01:01:25;100573.91;;;21.20;59.74
15314;BME280;7757;52.626;4.746;2023-08-30T01:03:51;100538.66;;;21.03;59.09
15314;BME280;7757;52.626;4.746;2023-08-30T01:06:16;100568.66;;;21.13;59.15
15314;BME280;7757;52.626;4.746;2023-08-30T01:08:42;100550.91;;;21.05;59.24
15314;BME280;7757;52.626;4.746;2023-08-30T01:11:25;100560.25;;;21.14;59.19
15314;BME280;7757;52.626;4.746;2023-08-30T01:14:04;100562.09;;;21.09;59.91
15314;BME280;7757;52.626;4.746;2023-08-30T01:16:34;100545.41;;;20.95;59.97
15314;BME280;7757;52.626;4.746;2023-08-30T01:19:04;100546.88;;;21.08;59.85
15314;BME280;7757;52.626;4.746;2023-08-30T01:21:43;100552.06;;;21.09;59.62
15314;BME280;7757;52.626;4.746;2023-08-30T01:24:26;100549.81;;;21.01;59.82
15314;BME280;7757;52.626;4.746;2023-08-30T01:27:10;100547.44;;;21.10;59.47
15314;BME280;7757;52.626;4.746;2023-08-30T01:29:37;100548.75;;;21.07;59.60
15314;BME280;7757;52.626;4.746;2023-08-30T01:32:04;100543.38;;;21.12;59.74
15314;BME280;7757;52.626;4.746;2023-08-30T01:34:31;100511.66;;;20.91;60.17
15314;BME280;7757;52.626;4.746;2023-08-30T01:36:57;100504.75;;;20.79;60.13
15314;BME280;7757;52.626;4.746;2023-08-30T01:39:23;100537.78;;;20.92;60.77
15314;BME280;7757;52.626;4.746;2023-08-30T01:41:50;100531.63;;;21.07;59.83
15314;BME280;7757;52.626;4.746;2023-08-30T01:44:17;100533.16;;;20.93;60.58
15314;BME280;7757;52.626;4.746;2023-08-30T01:46:44;100511.34;;;20.88;61.12
15314;BME280;7757;52.626;4.746;2023-08-30T01:49:11;100526.09;;;20.97;60.35
15314;BME280;7757;52.626;4.746;2023-08-30T01:51:38;100518.75;;;20.92;60.82
15314;BME280;7757;52.626;4.746;2023-08-30T01:54:05;100529.41;;;20.99;60.13
15314;BME280;7757;52.626;4.746;2023-08-30T01:56:33;100521.50;;;21.02;60.68
15314;BME280;7757;52.626;4.746;2023-08-30T01:58:58;100520.09;;;20.90;61.20
15314;BME280;7757;52.626;4.746;2023-08-30T02:01:24;100512.47;;;20.92;60.23
15314;BME280;7757;52.626;4.746;2023-08-30T02:03:50;100521.75;;;20.96;60.38
15314;BME280;7757;52.626;4.746;2023-08-30T02:06:42;100513.06;;;20.99;60.39
15314;BME280;7757;52.626;4.746;2023-08-30T02:09:18;100513.53;;;20.86;60.27
15314;BME280;7757;52.626;4.746;2023-08-30T02:11:46;100496.41;;;20.90;60.68
15314;BME280;7757;52.626;4.746;2023-08-30T02:14:14;100489.78;;;20.76;60.46
15314;BME280;7757;52.626;4.746;2023-08-30T02:16:43;100509.53;;;20.98;60.70
15314;BME280;7757;52.626;4.746;2023-08-30T02:19:10;100511.16;;;20.99;60.91
15314;BME280;7757;52.626;4.746;2023-08-30T02:21:37;100510.88;;;20.96;60.92
15314;BME280;7757;52.626;4.746;2023-08-30T02:24:04;100515.16;;;20.87;61.31
15314;BME280;7757;52.626;4.746;2023-08-30T02:26:29;100507.03;;;20.92;60.71
15314;BME280;7757;52.626;4.746;2023-08-30T02:28:55;100508.72;;;20.98;60.58
15314;BME280;7757;52.626;4.746;2023-08-30T02:31:20;100506.81;;;20.98;61.09
15314;BME280;7757;52.626;4.746;2023-08-30T02:33:45;100491.31;;;20.99;60.51
15314;BME280;7757;52.626;4.746;2023-08-30T02:36:11;100494.28;;;20.97;60.93
15314;BME280;7757;52.626;4.746;2023-08-30T02:38:36;100496.94;;;20.87;60.83
15314;BME280;7757;52.626;4.746;2023-08-30T02:41:01;100489.38;;;20.94;60.64
15314;BME280;7757;52.626;4.746;2023-08-30T02:43:27;100500.47;;;20.88;61.28
15314;BME280;7757;52.626;4.746;2023-08-30T02:45:53;100474.25;;;20.67;61.54
15314;BME280;7757;52.626;4.746;2023-08-30T02:48:19;100489.91;;;20.91;61.18
15314;BME280;7757;52.626;4.746;2023-08-30T02:50:44;100484.22;;;20.93;60.75
15314;BME280;7757;52.626;4.746;2023-08-30T02:53:09;100487.72;;;20.88;61.00
15314;BME280;7757;52.626;4.746;2023-08-30T02:55:35;100450.59;;;20.67;61.06
15314;BME280;7757;52.626;4.746;2023-08-30T02:58:01;100469.94;;;20.76;61.60
15314;BME280;7757;52.626;4.746;2023-08-30T03:00:27;100463.75;;;20.80;61.08
15314;BME280;7757;52.626;4.746;2023-08-30T03:02:53;100456.94;;;20.83;61.58
15314;BME280;7757;52.626;4.746;2023-08-30T03:05:19;100452.84;;;20.75;61.29
15314;BME280;7757;52.626;4.746;2023-08-30T03:07:45;100460.00;;;20.96;61.01
15314;BME280;7757;52.626;4.746;2023-08-30T03:10:11;100459.16;;;20.86;61.65
15314;BME280;7757;52.626;4.746;2023-08-30T03:12:38;100446.09;;;20.83;61.00
15314;BME280;7757;52.626;4.746;2023-08-30T03:15:04;100434.88;;;20.69;61.73
15314;BME280;7757;52.626;4.746;2023-08-30T03:17:30;100434.25;;;20.62;61.79
15314;BME280;7757;52.626;4.746;2023-08-30T03:19:56;100444.72;;;20.80;61.55
15314;BME280;7757;52.626;4.746;2023-08-30T03:22:21;100416.69;;;20.75;61.39
15314;BME280;7757;52.626;4.746;2023-08-30T03:24:47;100433.03;;;20.85;61.84
15314;BME280;7757;52.626;4.746;2023-08-30T03:27:12;100431.13;;;20.85;61.09
15314;BME280;7757;52.626;4.746;2023-08-30T03:29:38;100424.84;;;20.80;62.00
15314;BME280;7757;52.626;4.746;2023-08-30T03:32:05;100416.88;;;20.63;61.84
15314;BME280;7757;52.626;4.746;2023-08-30T03:34:30;100432.16;;;20.74;62.07
15314;BME280;7757;52.626;4.746;2023-08-30T03:36:56;100423.81;;;20.86;61.08
15314;BME280;7757;52.626;4.746;2023-08-30T03:39:21;100420.19;;;20.70;61.61
15314;BME280;7757;52.626;4.746;2023-08-30T03:41:47;100419.97;;;20.82;61.66
15314;BME280;7757;52.626;4.746;2023-08-30T03:44:13;100433.84;;;20.80;61.76
15314;BME280;7757;52.626;4.746;2023-08-30T03:46:39;100419.03;;;20.61;62.04
15314;BME280;7757;52.626;4.746;2023-08-30T03:49:04;100416.97;;;20.78;61.86
15314;BME280;7757;52.626;4.746;2023-08-30T03:51:30;100419.34;;;20.70;61.60
15314;BME280;7757;52.626;4.746;2023-08-30T03:53:55;100419.63;;;20.68;61.83
15314;BME280;7757;52.626;4.746;2023-08-30T03:56:24;100413.13;;;20.69;61.56
15314;BME280;7757;52.626;4.746;2023-08-30T03:58:50;100397.03;;;20.63;62.17
15314;BME280;7757;52.626;4.746;2023-08-30T04:01:16;100399.47;;;20.59;62.28
15314;BME280;7757;52.626;4.746;2023-08-30T04:03:41;100398.41;;;20.65;61.95
15314;BME280;7757;52.626;4.746;2023-08-30T04:06:08;100403.91;;;20.75;61.99
15314;BME280;7757;52.626;4.746;2023-08-30T04:08:33;100412.09;;;20.80;62.10
15314;BME280;7757;52.626;4.746;2023-08-30T04:10:59;100391.09;;;20.66;61.72
15314;BME280;7757;52.626;4.746;2023-08-30T04:13:25;100398.72;;;20.69;62.04
15314;BME280;7757;52.626;4.746;2023-08-30T04:15:51;100394.34;;;20.68;61.64
15314;BME280;7757;52.626;4.746;2023-08-30T04:18:17;100389.72;;;20.63;61.76
15314;BME280;7757;52.626;4.746;2023-08-30T04:20:46;100393.03;;;20.75;61.67
15314;BME280;7757;52.626;4.746;2023-08-30T04:23:12;100390.56;;;20.69;61.74
15314;BME280;7757;52.626;4.746;2023-08-30T04:25:38;100382.81;;;20.45;62.55
15314;BME280;7757;52.626;4.746;2023-08-30T04:28:05;100372.50;;;20.52;62.27
15314;BME280;7757;52.626;4.746;2023-08-30T04:30:30;100362.34;;;20.33;62.21
15314;BME280;7757;52.626;4.746;2023-08-30T04:32:58;100392.56;;;20.46;62.09
15314;BME280;7757;52.626;4.746;2023-08-30T04:35:24;100392.16;;;20.70;62.33
15314;BME280;7757;52.626;4.746;2023-08-30T04:37:50;100382.38;;;20.64;61.89
15314;BME280;7757;52.626;4.746;2023-08-30T04:40:15;100386.50;;;20.71;61.83
15314;BME280;7757;52.626;4.746;2023-08-30T04:42:40;100384.31;;;20.73;61.26
15314;BME280;7757;52.626;4.746;2023-08-30T04:45:07;100380.44;;;20.59;61.82
15314;BME280;7757;52.626;4.746;2023-08-30T04:47:33;100383.22;;;20.69;62.02
15314;BME280;7757;52.626;4.746;2023-08-30T04:49:58;100378.25;;;20.56;62.22
15314;BME280;7757;52.626;4.746;2023-08-30T04:52:27;100337.63;;;20.34;62.02
15314;BME280;7757;52.626;4.746;2023-08-30T04:54:53;100352.41;;;20.48;62.32
15314;BME280;7757;52.626;4.746;2023-08-30T04:57:18;100337.69;;;20.44;62.36
15314;BME280;7757;52.626;4.746;2023-08-30T04:59:44;100327.84;;;20.33;62.42
15314;BME280;7757;52.626;4.746;2023-08-30T05:02:10;100364.41;;;20.57;61.77
15314;BME280;7757;52.626;4.746;2023-08-30T05:04:37;100356.47;;;20.46;62.05
15314;BME280;7757;52.626;4.746;2023-08-30T05:07:03;100343.41;;;20.11;63.46
15314;BME280;7757;52.626;4.746;2023-08-30T05:09:33;100359.63;;;20.33;62.85
15314;BME280;7757;52.626;4.746;2023-08-30T05:12:00;100358.38;;;20.50;62.28
15314;BME280;7757;52.626;4.746;2023-08-30T05:14:27;100347.38;;;20.25;62.65
15314;BME280;7757;52.626;4.746;2023-08-30T05:16:52;100310.72;;;20.28;62.14
15314;BME280;7757;52.626;4.746;2023-08-30T05:19:19;100347.50;;;20.50;61.84
15314;BME280;7757;52.626;4.746;2023-08-30T05:21:45;100339.69;;;20.64;61.98
15314;BME280;7757;52.626;4.746;2023-08-30T05:24:11;100332.53;;;20.43;61.84
15314;BME280;7757;52.626;4.746;2023-08-30T05:26:36;100348.66;;;20.59;61.47
15314;BME280;7757;52.626;4.746;2023-08-30T05:29:03;100346.66;;;20.45;62.19
15314;BME280;7757;52.626;4.746;2023-08-30T05:31:28;100345.94;;;20.23;62.73
15314;BME280;7757;52.626;4.746;2023-08-30T05:33:53;100334.34;;;20.27;61.74
15314;BME280;7757;52.626;4.746;2023-08-30T05:36:19;100320.53;;;20.34;61.43
15314;BME280;7757;52.626;4.746;2023-08-30T05:38:45;100338.50;;;20.40;61.66
15314;BME280;7757;52.626;4.746;2023-08-30T05:41:11;100344.50;;;20.47;61.62
15314;BME280;7757;52.626;4.746;2023-08-30T05:43:37;100340.19;;;20.51;61.53
15314;BME280;7757;52.626;4.746;2023-08-30T05:46:02;100270.06;;;20.01;61.77
15314;BME280;7757;52.626;4.746;2023-08-30T05:48:30;100318.13;;;20.42;61.44
15314;BME280;7757;52.626;4.746;2023-08-30T05:50:56;100336.34;;;20.47;61.52
15314;BME280;7757;52.626;4.746;2023-08-30T05:53:22;100337.19;;;20.52;61.38
15314;BME280;7757;52.626;4.746;2023-08-30T05:55:48;100327.28;;;20.31;61.68
15314;BME280;7757;52.626;4.746;2023-08-30T05:58:14;100337.47;;;20.51;61.25
15314;BME280;7757;52.626;4.746;2023-08-30T06:00:40;100340.44;;;20.49;61.46
15314;BME280;7757;52.626;4.746;2023-08-30T06:03:06;100343.41;;;20.43;61.41
15314;BME280;7757;52.626;4.746;2023-08-30T06:05:32;100352.09;;;20.45;61.51
15314;BME280;7757;52.626;4.746;2023-08-30T06:07:58;100349.28;;;20.30;61.62
15314;BME280;7757;52.626;4.746;2023-08-30T06:10:23;100345.00;;;20.39;61.53
15314;BME280;7757;52.626;4.746;2023-08-30T06:12:50;100356.38;;;20.36;61.75
15314;BME280;7757;52.626;4.746;2023-08-30T06:15:17;100326.38;;;20.21;61.50
15314;BME280;7757;52.626;4.746;2023-08-30T06:17:42;100352.84;;;20.35;61.54
15314;BME280;7757;52.626;4.746;2023-08-30T06:20:08;100348.53;;;20.39;61.86
15314;BME280;7757;52.626;4.746;2023-08-30T06:22:34;100326.06;;;20.17;61.57
15314;BME280;7757;52.626;4.746;2023-08-30T06:24:59;100339.22;;;20.25;62.46
15314;BME280;7757;52.626;4.746;2023-08-30T06:27:25;100340.16;;;20.14;63.10
15314;BME280;7757;52.626;4.746;2023-08-30T06:29:51;100296.75;;;19.77;62.99
15314;BME280;7757;52.626;4.746;2023-08-30T06:32:17;100323.97;;;20.24;62.43
15314;BME280;7757;52.626;4.746;2023-08-30T06:34:43;100333.69;;;20.15;63.17
15314;BME280;7757;52.626;4.746;2023-08-30T06:37:10;100331.16;;;20.03;63.48
15314;BME280;7757;52.626;4.746;2023-08-30T06:39:35;100332.56;;;20.11;63.38
15314;BME280;7757;52.626;4.746;2023-08-30T06:42:02;100300.75;;;20.07;63.22
15314;BME280;7757;52.626;4.746;2023-08-30T06:44:28;100323.78;;;19.99;63.36
15314;BME280;7757;52.626;4.746;2023-08-30T06:46:55;100323.25;;;20.02;63.87
15314;BME280;7757;52.626;4.746;2023-08-30T06:49:23;100322.81;;;20.15;63.13
15314;BME280;7757;52.626;4.746;2023-08-30T06:51:48;100331.72;;;20.11;63.56
15314;BME280;7757;52.626;4.746;2023-08-30T06:54:14;100308.09;;;20.06;62.86
15314;BME280;7757;52.626;4.746;2023-08-30T06:56:39;100320.06;;;20.10;63.09
15314;BME280;7757;52.626;4.746;2023-08-30T06:59:06;100331.78;;;20.16;62.70
15314;BME280;7757;52.626;4.746;2023-08-30T07:01:31;100302.94;;;19.73;63.92
15314;BME280;7757;52.626;4.746;2023-08-30T07:03:56;100314.44;;;19.85;64.62
15314;BME280;7757;52.626;4.746;2023-08-30T07:06:22;100337.50;;;20.19;63.29
15314;BME280;7757;52.626;4.746;2023-08-30T07:08:48;100333.88;;;20.03;63.95
15314;BME280;7757;52.626;4.746;2023-08-30T07:11:14;100339.50;;;19.97;64.38
15314;BME280;7757;52.626;4.746;2023-08-30T07:13:40;100328.22;;;20.10;64.06
15314;BME280;7757;52.626;4.746;2023-08-30T07:16:06;100334.72;;;20.09;64.00
15314;BME280;7757;52.626;4.746;2023-08-30T07:18:31;100325.56;;;19.83;64.15
15314;BME280;7757;52.626;4.746;2023-08-30T07:20:56;100333.00;;;19.98;64.33
15314;BME280;7757;52.626;4.746;2023-08-30T07:23:22;100316.44;;;19.99;63.55
15314;BME280;7757;52.626;4.746;2023-08-30T07:25:47;100300.09;;;19.89;63.99
15314;BME280;7757;52.626;4.746;2023-08-30T07:28:13;100316.50;;;20.04;63.72
15314;BME280;7757;52.626;4.746;2023-08-30T07:30:39;100328.16;;;20.05;64.43
15314;BME280;7757;52.626;4.746;2023-08-30T07:33:08;100337.00;;;20.22;64.26
15314;BME280;7757;52.626;4.746;2023-08-30T07:35:33;100280.16;;;19.74;64.66
15314;BME280;7757;52.626;4.746;2023-08-30T07:37:58;100319.75;;;20.01;64.61
15314;BME280;7757;52.626;4.746;2023-08-30T07:40:24;100287.94;;;19.60;65.44
15314;BME280;7757;52.626;4.746;2023-08-30T07:42:52;100308.19;;;19.84;65.26
15314;BME280;7757;52.626;4.746;2023-08-30T07:45:17;100289.25;;;19.89;64.92
15314;BME280;7757;52.626;4.746;2023-08-30T07:47:43;100302.53;;;19.91;64.72
15314;BME280;7757;52.626;4.746;2023-08-30T07:50:08;100300.09;;;19.89;65.21
15314;BME280;7757;52.626;4.746;2023-08-30T07:52:34;100303.56;;;19.85;65.33
15314;BME280;7757;52.626;4.746;2023-08-30T07:55:00;100286.66;;;20.04;64.65
15314;BME280;7757;52.626;4.746;2023-08-30T07:57:26;100283.81;;;19.89;65.28
15314;BME280;7757;52.626;4.746;2023-08-30T07:59:51;100305.59;;;19.99;65.10
15314;BME280;7757;52.626;4.746;2023-08-30T08:02:17;100306.50;;;20.10;64.60
15314;BME280;7757;52.626;4.746;2023-08-30T08:04:43;100306.78;;;20.14;64.70
15314;BME280;7757;52.626;4.746;2023-08-30T08:07:10;100298.56;;;20.03;65.44
15314;BME280;7757;52.626;4.746;2023-08-30T08:09:35;100305.00;;;19.92;65.38
15314;BME280;7757;52.626;4.746;2023-08-30T08:12:00;100307.47;;;19.99;65.45
15314;BME280;7757;52.626;4.746;2023-08-30T08:14:30;100308.63;;;20.08;65.18
15314;BME280;7757;52.626;4.746;2023-08-30T08:16:56;100291.78;;;20.06;64.90
15314;BME280;7757;52.626;4.746;2023-08-30T08:19:21;100314.66;;;20.15;65.22
15314;BME280;7757;52.626;4.746;2023-08-30T08:21:47;100298.03;;;20.01;65.62
15314;BME280;7757;52.626;4.746;2023-08-30T08:24:13;100292.66;;;20.12;65.29
15314;BME280;7757;52.626;4.746;2023-08-30T08:26:39;100292.34;;;20.08;65.20
15314;BME280;7757;52.626;4.746;2023-08-30T08:29:04;100287.50;;;20.15;65.14
15314;BME280;7757;52.626;4.746;2023-08-30T08:31:31;100288.84;;;20.13;65.23
15314;BME280;7757;52.626;4.746;2023-08-30T08:34:10;100285.31;;;20.12;65.74
15314;BME280;7757;52.626;4.746;2023-08-30T08:36:37;100279.28;;;20.05;65.37
15314;BME280;7757;52.626;4.746;2023-08-30T08:39:03;100289.38;;;19.73;66.46
15314;BME280;7757;52.626;4.746;2023-08-30T08:41:44;100287.63;;;19.93;66.22
15314;BME280;7757;52.626;4.746;2023-08-30T08:44:11;100278.25;;;20.11;65.72
15314;BME280;7757;52.626;4.746;2023-08-30T08:46:38;100279.66;;;20.19;65.10
15314;BME280;7757;52.626;4.746;2023-08-30T08:49:14;100289.19;;;20.21;65.07
15314;BME280;7757;52.626;4.746;2023-08-30T08:51:40;100290.06;;;20.27;64.88
15314;BME280;7757;52.626;4.746;2023-08-30T08:54:07;100294.06;;;20.19;65.62
15314;BME280;7757;52.626;4.746;2023-08-30T08:56:34;100285.41;;;20.22;64.90
15314;BME280;7757;52.626;4.746;2023-08-30T08:59:00;100294.22;;;20.08;65.52
15314;BME280;7757;52.626;4.746;2023-08-30T09:01:26;100275.66;;;19.58;66.61
15314;BME280;7757;52.626;4.746;2023-08-30T09:03:52;100301.69;;;19.85;66.51
15314;BME280;7757;52.626;4.746;2023-08-30T09:06:18;100271.94;;;18.62;70.23
15314;BME280;7757;52.626;4.746;2023-08-30T09:08:44;100287.09;;;17.86;74.37
15314;BME280;7757;52.626;4.746;2023-08-30T09:11:09;100290.47;;;18.70;73.04
15314;BME280;7757;52.626;4.746;2023-08-30T09:13:34;100282.97;;;18.77;71.29
15314;BME280;7757;52.626;4.746;2023-08-30T09:16:00;100272.00;;;18.67;70.81
15314;BME280;7757;52.626;4.746;2023-08-30T09:18:25;100287.63;;;18.05;73.39
15314;BME280;7757;52.626;4.746;2023-08-30T09:20:53;100287.31;;;18.56;72.39
15314;BME280;7757;52.626;4.746;2023-08-30T09:23:21;100277.91;;;17.87;75.03
15314;BME280;7757;52.626;4.746;2023-08-30T09:25:54;100252.81;;;18.30;73.28
15314;BME280;7757;52.626;4.746;2023-08-30T09:28:20;100278.69;;;18.59;72.54
15314;BME280;7757;52.626;4.746;2023-08-30T09:30:52;100290.41;;;19.67;68.24
15314;BME280;7757;52.626;4.746;2023-08-30T09:33:22;100277.81;;;19.51;67.89
15314;BME280;7757;52.626;4.746;2023-08-30T09:35:48;100299.06;;;19.95;66.52
15314;BME280;7757;52.626;4.746;2023-08-30T09:38:20;100287.69;;;19.98;66.23
15314;BME280;7757;52.626;4.746;2023-08-30T09:40:46;100276.66;;;19.78;66.76
15314;BME280;7757;52.626;4.746;2023-08-30T09:43:13;100264.69;;;19.74;66.67
15314;BME280;7757;52.626;4.746;2023-08-30T09:45:39;100296.78;;;19.82;67.11
15314;BME280;7757;52.626;4.746;2023-08-30T09:48:05;100253.44;;;19.92;65.89
15314;BME280;7757;52.626;4.746;2023-08-30T09:50:33;100290.78;;;20.17;65.34
15314;BME280;7757;52.626;4.746;2023-08-30T09:53:08;100286.69;;;20.15;66.42
15314;BME280;7757;52.626;4.746;2023-08-30T09:55:36;100278.91;;;20.28;65.52
15314;BME280;7757;52.626;4.746;2023-08-30T09:58:02;100278.66;;;20.30;65.91
15314;BME280;7757;52.626;4.746;2023-08-30T10:00:29;100273.03;;;20.41;65.10
15314;BME280;7757;52.626;4.746;2023-08-30T10:02:58;100280.97;;;20.58;65.94
15314;BME280;7757;52.626;4.746;2023-08-30T10:05:25;100278.59;;;20.67;65.68
15314;BME280;7757;52.626;4.746;2023-08-30T10:07:52;100223.28;;;20.36;65.16
15314;BME280;7757;52.626;4.746;2023-08-30T10:10:19;100266.63;;;20.68;64.36
15314;BME280;7757;52.626;4.746;2023-08-30T10:12:46;100278.38;;;20.93;64.56
15314;BME280;7757;52.626;4.746;2023-08-30T10:15:12;100297.56;;;20.62;64.85
15314;BME280;7757;52.626;4.746;2023-08-30T10:17:41;100292.75;;;20.79;64.76
15314;BME280;7757;52.626;4.746;2023-08-30T10:20:10;100288.84;;;21.27;63.98
15314;BME280;7757;52.626;4.746;2023-08-30T10:22:38;100285.22;;;21.06;62.29
15314;BME280;7757;52.626;4.746;2023-08-30T10:25:18;100258.53;;;20.83;63.35
15314;BME280;7757;52.626;4.746;2023-08-30T10:27:47;100296.03;;;20.86;63.54
15314;BME280;7757;52.626;4.746;2023-08-30T10:30:14;100289.00;;;20.90;63.50
15314;BME280;7757;52.626;4.746;2023-08-30T10:32:43;100290.88;;;20.84;63.31
15314;BME280;7757;52.626;4.746;2023-08-30T10:35:14;100305.56;;;20.83;63.49
15314;BME280;7757;52.626;4.746;2023-08-30T10:37:40;100304.75;;;20.88;62.74
15314;BME280;7757;52.626;4.746;2023-08-30T10:40:06;100299.56;;;20.81;62.92
15314;BME280;7757;52.626;4.746;2023-08-30T10:42:32;100281.03;;;20.73;62.56
15314;BME280;7757;52.626;4.746;2023-08-30T10:45:06;100303.97;;;21.02;62.19
15314;BME280;7757;52.626;4.746;2023-08-30T10:47:34;100301.47;;;20.86;62.91
15314;BME280;7757;52.626;4.746;2023-08-30T10:50:06;100300.13;;;20.93;62.93
15314;BME280;7757;52.626;4.746;2023-08-30T10:52:32;100284.56;;;20.74;62.04
15314;BME280;7757;52.626;4.746;2023-08-30T10:55:10;100300.13;;;20.83;61.83
15314;BME280;7757;52.626;4.746;2023-08-30T10:57:37;100265.78;;;20.67;62.19
15314;BME280;7757;52.626;4.746;2023-08-30T11:02:48;100282.81;;;20.42;61.67
15314;BME280;7757;52.626;4.746;2023-08-30T11:05:20;100315.00;;;20.76;61.72
15314;BME280;7757;52.626;4.746;2023-08-30T11:07:46;100315.84;;;20.76;62.21
15314;BME280;7757;52.626;4.746;2023-08-30T11:10:12;100315.22;;;20.59;61.99
15314;BME280;7757;52.626;4.746;2023-08-30T11:12:42;100315.81;;;20.71;61.85
15314;BME280;7757;52.626;4.746;2023-08-30T11:15:09;100321.25;;;20.71;61.15
15314;BME280;7757;52.626;4.746;2023-08-30T11:17:35;100323.88;;;20.51;61.54
15314;BME280;7757;52.626;4.746;2023-08-30T11:22:37;100319.09;;;20.73;61.25
15314;BME280;7757;52.626;4.746;2023-08-30T11:25:04;100320.72;;;20.74;60.62
15314;BME280;7757;52.626;4.746;2023-08-30T11:27:30;100318.47;;;20.61;61.35
15314;BME280;7757;52.626;4.746;2023-08-30T11:29:59;100317.72;;;20.66;60.97
15314;BME280;7757;52.626;4.746;2023-08-30T11:32:25;100316.06;;;20.65;60.70
15314;BME280;7757;52.626;4.746;2023-08-30T11:34:57;100321.16;;;20.46;60.35
15314;BME280;7757;52.626;4.746;2023-08-30T11:37:23;100316.88;;;20.60;58.98
15314;BME280;7757;52.626;4.746;2023-08-30T11:39:52;100332.91;;;20.62;59.12
15314;BME280;7757;52.626;4.746;2023-08-30T11:42:17;100326.84;;;20.49;58.97
15314;BME280;7757;52.626;4.746;2023-08-30T11:44:44;100323.81;;;20.41;58.65
15314;BME280;7757;52.626;4.746;2023-08-30T11:47:09;100323.28;;;20.44;58.28
15314;BME280;7757;52.626;4.746;2023-08-30T11:49:35;100325.78;;;20.55;58.04
15314;BME280;7757;52.626;4.746;2023-08-30T11:52:01;100334.78;;;20.61;58.00
15314;BME280;7757;52.626;4.746;2023-08-30T11:54:28;100314.44;;;20.64;57.80
15314;BME280;7757;52.626;4.746;2023-08-30T11:56:53;100331.66;;;20.84;57.74
15314;BME280;7757;52.626;4.746;2023-08-30T11:59:20;100259.22;;;20.06;58.44
15314;BME280;7757;52.626;4.746;2023-08-30T12:01:47;100299.06;;;20.37;59.04
15314;BME280;7757;52.626;4.746;2023-08-30T12:04:12;100326.94;;;20.70;58.58
15314;BME280;7757;52.626;4.746;2023-08-30T12:06:37;100341.03;;;20.56;58.86
15314;BME280;7757;52.626;4.746;2023-08-30T12:09:04;100337.03;;;20.69;57.70
15314;BME280;7757;52.626;4.746;2023-08-30T12:11:34;100347.63;;;20.76;57.94
15314;BME280;7757;52.626;4.746;2023-08-30T12:14:02;100340.88;;;20.78;57.77
15314;BME280;7757;52.626;4.746;2023-08-30T12:16:28;100336.19;;;20.64;57.35
15314;BME280;7757;52.626;4.746;2023-08-30T12:18:53;100345.72;;;20.71;57.05
15314;BME280;7757;52.626;4.746;2023-08-30T12:21:18;100332.91;;;20.62;57.46
15314;BME280;7757;52.626;4.746;2023-08-30T12:23:44;100338.38;;;20.67;57.84
15314;BME280;7757;52.626;4.746;2023-08-30T12:26:11;100343.53;;;20.68;57.31
15314;BME280;7757;52.626;4.746;2023-08-30T12:28:39;100349.41;;;20.50;57.84
15314;BME280;7757;52.626;4.746;2023-08-30T12:31:05;100346.16;;;20.53;56.79
15314;BME280;7757;52.626;4.746;2023-08-30T12:33:32;100356.19;;;20.47;56.77
15314;BME280;7757;52.626;4.746;2023-08-30T12:35:58;100345.09;;;20.54;56.84
15314;BME280;7757;52.626;4.746;2023-08-30T12:38:24;100354.69;;;20.67;57.05
15314;BME280;7757;52.626;4.746;2023-08-30T12:40:54;100351.63;;;20.58;57.71
15314;BME280;7757;52.626;4.746;2023-08-30T12:43:20;100332.25;;;20.44;57.59
15314;BME280;7757;52.626;4.746;2023-08-30T12:45:47;100355.03;;;20.38;57.94
15314;BME280;7757;52.626;4.746;2023-08-30T12:48:14;100358.06;;;20.42;57.88
15314;BME280;7757;52.626;4.746;2023-08-30T12:50:43;100372.09;;;20.29;59.04
15314;BME280;7757;52.626;4.746;2023-08-30T12:53:09;100370.28;;;20.44;59.11
15314;BME280;7757;52.626;4.746;2023-08-30T12:55:35;100364.75;;;20.29;59.31
15314;BME280;7757;52.626;4.746;2023-08-30T12:58:02;100373.38;;;20.21;59.44
15314;BME280;7757;52.626;4.746;2023-08-30T13:00:30;100361.56;;;19.74;62.42
15314;BME280;7757;52.626;4.746;2023-08-30T13:02:55;100338.31;;;19.83;61.12